Time;durP1;ratioP1;P1;durP2;ratioP2;P2;SDS_P1;SDS_P2;PMS_P1;PMS_P2;Temp;Humidity;BMP_temperature;BMP_pressure;BME280_temperature;BME280_humidity;BME280_pressure;Samples;Min_cycle;Max_cycle;Signal;HPM_P1;HPM_P2
2021/08/11 00:01:28;;;;;;;3.37;2.90;;;18.40;99.90;;;;;;6248054;28;20671;-72
2021/08/11 00:04:30;;;;;;;3.27;2.97;;;18.30;99.90;;;;;;6249587;28;20227;-72
2021/08/11 00:07:32;;;;;;;5.90;2.77;;;18.30;99.90;;;;;;6248655;28;20265;-72
2021/08/11 00:10:35;;;;;;;3.00;2.70;;;18.30;99.90;;;;;;6247445;28;20208;-71
2021/08/11 00:13:37;;;;;;;3.13;2.70;;;18.30;99.90;;;;;;6247479;28;20191;-72
2021/08/11 00:16:39;;;;;;;2.50;2.30;;;18.30;99.90;;;;;;6235774;28;20297;-72
2021/08/11 00:19:41;;;;;;;5.03;2.70;;;18.20;99.90;;;;;;6247163;28;20207;-72
2021/08/11 00:22:44;;;;;;;3.77;2.37;;;18.20;99.90;;;;;;6247114;28;20203;-72
2021/08/11 00:25:46;;;;;;;3.80;3.10;;;18.20;99.90;;;;;;6237718;28;20201;-72
2021/08/11 00:28:48;;;;;;;3.97;2.93;;;18.10;99.90;;;;;;6233660;28;20195;-73
2021/08/11 00:31:50;;;;;;;4.40;3.07;;;18.10;99.90;;;;;;6261869;28;20212;-72
2021/08/11 00:34:54;;;;;;;4.00;2.70;;;17.90;99.90;;;;;;6261761;28;20286;-72
2021/08/11 00:37:56;;;;;;;3.20;2.83;;;17.90;99.90;;;;;;6245680;28;20567;-72
2021/08/11 00:41:00;;;;;;;3.30;2.80;;;17.80;99.90;;;;;;6245569;28;20629;-72
2021/08/11 00:44:03;;;;;;;3.53;2.80;;;17.70;99.90;;;;;;6245132;28;20265;-72
2021/08/11 00:47:06;;;;;;;5.33;3.00;;;17.70;99.90;;;;;;6246831;28;20226;-72
2021/08/11 00:50:10;;;;;;;2.73;2.53;;;17.60;99.90;;;;;;6244700;28;20223;-71
2021/08/11 00:53:16;;;;;;;4.97;2.93;;;17.60;99.90;;;;;;6245217;28;20277;-72
2021/08/11 00:56:19;;;;;;;4.43;2.70;;;17.60;99.90;;;;;;6261960;28;20274;-72
2021/08/11 00:59:24;;;;;;;4.33;2.90;;;17.60;99.90;;;;;;6244815;28;20192;-72
2021/08/11 01:02:30;;;;;;;3.63;2.87;;;17.60;99.90;;;;;;6246704;28;20188;-72
2021/08/11 01:05:34;;;;;;;3.43;3.03;;;17.60;99.90;;;;;;6244544;28;20235;-71
2021/08/11 01:08:37;;;;;;;7.53;3.13;;;17.60;99.90;;;;;;6245411;28;20298;-72
2021/08/11 01:11:44;;;;;;;3.27;2.97;;;17.60;99.90;;;;;;6261658;28;20218;-72
2021/08/11 01:14:50;;;;;;;4.73;3.13;;;17.70;99.90;;;;;;6261617;28;20560;-73
2021/08/11 01:17:52;;;;;;;4.33;2.70;;;17.80;99.90;;;;;;6203921;28;1216597;-72
2021/08/11 01:21:35;;;;;;;6.70;3.13;;;17.80;99.90;;;;;;6262134;28;20215;-72
2021/08/11 01:24:59;;;;;;;7.83;3.27;;;17.70;99.90;;;;;;6246204;28;20619;-72
2021/08/11 01:28:14;;;;;;;7.20;3.37;;;17.60;99.90;;;;;;6245698;28;20274;-72
2021/08/11 01:31:27;;;;;;;6.93;3.63;;;17.60;99.90;;;;;;6245785;28;20227;-72
2021/08/11 01:34:47;;;;;;;4.43;3.50;;;17.90;99.90;;;;;;6246513;28;20661;-72
2021/08/11 01:37:56;;;;;;;6.53;3.33;;;18.60;99.90;;;;;;6245520;28;20200;-72
2021/08/11 01:41:02;;;;;;;6.27;3.37;;;18.90;99.90;;;;;;6247533;28;20315;-73
2021/08/11 01:44:07;;;;;;;4.60;3.00;;;19.10;99.90;;;;;;6244613;28;20746;-72
2021/08/11 01:47:14;;;;;;;6.40;3.50;;;19.20;99.90;;;;;;6245421;28;20211;-72
2021/08/11 01:50:21;;;;;;;4.43;3.10;;;19.30;99.90;;;;;;6244863;28;20231;-72
2021/08/11 01:53:25;;;;;;;5.33;2.80;;;19.30;99.90;;;;;;6245546;28;20188;-72
2021/08/11 01:56:30;;;;;;;6.13;2.90;;;19.30;99.90;;;;;;6261466;28;20672;-72
2021/08/11 01:59:32;;;;;;;3.77;3.23;;;19.20;99.90;;;;;;6244968;28;20223;-73
2021/08/11 02:02:37;;;;;;;4.83;3.27;;;19.20;99.90;;;;;;6261644;28;20200;-72
2021/08/11 02:05:44;;;;;;;3.77;3.13;;;19.20;99.90;;;;;;6244507;28;20193;-72
2021/08/11 02:08:50;;;;;;;4.47;3.07;;;19.10;99.90;;;;;;6245130;28;20199;-72
2021/08/11 02:11:53;;;;;;;3.30;3.00;;;19.00;99.90;;;;;;6244306;28;20203;-72
2021/08/11 02:14:58;;;;;;;4.47;2.87;;;18.90;99.90;;;;;;6261437;28;20188;-72
2021/08/11 02:18:02;;;;;;;3.57;2.90;;;18.80;99.90;;;;;;6244448;28;20232;-73
2021/08/11 02:21:05;;;;;;;3.17;2.87;;;18.80;99.90;;;;;;6219705;28;20192;-72
2021/08/11 02:24:12;;;;;;;3.30;2.60;;;18.70;99.90;;;;;;6243458;28;20196;-72
2021/08/11 02:27:22;;;;;;;3.80;3.00;;;18.70;99.90;;;;;;6245500;28;20203;-72
2021/08/11 02:30:30;;;;;;;3.97;3.03;;;18.60;99.90;;;;;;6260571;28;20718;-73
2021/08/11 02:33:57;;;;;;;4.93;2.97;;;18.50;99.90;;;;;;6245293;28;20250;-73
2021/08/11 02:37:06;;;;;;;3.80;2.67;;;18.40;99.90;;;;;;6261241;28;20270;-73
2021/08/11 02:40:14;;;;;;;5.97;3.00;;;18.30;99.90;;;;;;6244269;28;20207;-72
2021/08/11 02:43:57;;;;;;;3.63;3.20;;;18.20;99.90;;;;;;6245209;28;20189;-73
2021/08/11 02:47:01;;;;;;;3.37;3.07;;;18.10;99.90;;;;;;6243929;28;20533;-72
2021/08/11 02:50:08;;;;;;;2.93;2.63;;;18.10;99.90;;;;;;6244235;28;20192;-73
2021/08/11 02:53:16;;;;;;;3.90;2.53;;;18.00;99.90;;;;;;6244849;28;20200;-72
2021/08/11 02:56:19;;;;;;;3.10;2.37;;;17.90;99.90;;;;;;6260156;28;20202;-73
2021/08/11 02:59:24;;;;;;;3.20;2.40;;;17.90;99.90;;;;;;6245347;28;20323;-72
2021/08/11 03:02:27;;;;;;;5.13;2.53;;;17.80;99.90;;;;;;6243945;28;20200;-72
2021/08/11 03:05:34;;;;;;;3.47;2.77;;;17.80;99.90;;;;;;6244703;28;20698;-72
2021/08/11 03:08:37;;;;;;;3.10;2.63;;;17.70;99.90;;;;;;6260532;28;20563;-73
2021/08/11 03:11:40;;;;;;;5.00;2.70;;;17.60;99.90;;;;;;6259798;28;20595;-72
2021/08/11 03:14:44;;;;;;;2.67;2.40;;;17.60;99.90;;;;;;6245069;28;20196;-72
2021/08/11 03:17:48;;;;;;;2.67;2.47;;;17.50;99.90;;;;;;6243013;28;20589;-73
2021/08/11 03:20:52;;;;;;;2.80;2.47;;;17.40;99.90;;;;;;6244012;28;20192;-72
2021/08/11 03:23:55;;;;;;;3.53;2.13;;;17.40;99.90;;;;;;6260289;28;20586;-73
2021/08/11 03:26:59;;;;;;;3.77;2.50;;;17.30;99.90;;;;;;6244610;28;20350;-74
2021/08/11 03:30:04;;;;;;;5.03;2.37;;;17.30;99.90;;;;;;6243485;28;20196;-72
2021/08/11 03:33:06;;;;;;;4.53;2.37;;;17.20;99.90;;;;;;6259594;28;20200;-73
2021/08/11 03:36:09;;;;;;;4.33;2.50;;;17.20;99.90;;;;;;6243436;28;20216;-73
2021/08/11 03:39:14;;;;;;;4.67;2.83;;;17.10;99.90;;;;;;6260062;28;20192;-72
2021/08/11 03:42:17;;;;;;;3.57;2.47;;;17.10;99.90;;;;;;6243320;28;20198;-73
2021/08/11 03:45:20;;;;;;;3.90;2.40;;;17.00;99.90;;;;;;6259710;28;20199;-73
2021/08/11 03:48:23;;;;;;;2.83;2.57;;;17.00;99.90;;;;;;6244349;28;20202;-72
2021/08/11 03:51:25;;;;;;;3.83;2.40;;;17.00;99.90;;;;;;6243207;28;20212;-72
2021/08/11 03:54:28;;;;;;;5.27;2.67;;;17.10;99.90;;;;;;6243588;28;20184;-73
2021/08/11 03:57:30;;;;;;;5.80;2.60;;;17.10;99.90;;;;;;6259663;28;20196;-73
2021/08/11 04:00:34;;;;;;;7.17;2.97;;;17.10;99.90;;;;;;6242986;28;20227;-72
2021/08/11 04:03:36;;;;;;;6.13;2.57;;;17.10;99.90;;;;;;6244809;28;20211;-72
2021/08/11 04:06:39;;;;;;;4.60;2.03;;;17.10;99.90;;;;;;6244957;28;20631;-72
2021/08/11 04:09:41;;;;;;;3.23;2.20;;;17.20;99.90;;;;;;6249140;28;20195;-71
2021/08/11 04:12:44;;;;;;;8.73;2.53;;;17.20;99.90;;;;;;6249062;28;20211;-72
2021/08/11 04:15:51;;;;;;;5.33;2.13;;;17.30;99.90;;;;;;6249042;28;20232;-72
2021/08/11 04:19:08;;;;;;;4.17;2.20;;;17.40;99.90;;;;;;6247872;28;20197;-72
2021/08/11 04:22:11;;;;;;;8.83;2.90;;;17.40;99.90;;;;;;6248049;28;20188;-73
2021/08/11 04:25:13;;;;;;;4.50;2.23;;;17.50;99.90;;;;;;6248468;28;20188;-72
2021/08/11 04:28:15;;;;;;;4.23;2.60;;;17.50;99.90;;;;;;6248734;28;20200;-72
2021/08/11 04:31:17;;;;;;;6.53;2.70;;;17.50;99.90;;;;;;6263631;28;20208;-73
2021/08/11 04:34:19;;;;;;;5.60;2.30;;;17.50;99.90;;;;;;6246925;28;20200;-72
2021/08/11 04:37:21;;;;;;;3.47;1.97;;;17.50;99.90;;;;;;6248861;28;20192;-72
2021/08/11 04:40:24;;;;;;;3.93;2.30;;;17.40;99.90;;;;;;6247743;28;20287;-73
2021/08/11 04:43:27;;;;;;;4.60;2.80;;;17.50;99.90;;;;;;6263342;28;20203;-72
2021/08/11 04:46:29;;;;;;;2.90;2.20;;;17.50;99.90;;;;;;6246387;28;20199;-72
2021/08/11 04:49:32;;;;;;;2.57;2.13;;;17.50;99.90;;;;;;6248198;28;20755;-72
2021/08/11 04:52:34;;;;;;;3.57;2.03;;;17.50;99.90;;;;;;6246992;28;20212;-72
2021/08/11 04:55:37;;;;;;;4.50;2.03;;;17.60;99.90;;;;;;6247514;28;20200;-72
2021/08/11 04:58:39;;;;;;;3.87;2.30;;;17.60;99.90;;;;;;6247820;28;20196;-72
2021/08/11 05:01:41;;;;;;;2.70;1.97;;;17.60;99.90;;;;;;6247366;28;20293;-72
2021/08/11 05:04:47;;;;;;;5.30;2.40;;;17.60;99.90;;;;;;6247883;28;20287;-73
2021/08/11 05:07:58;;;;;;;1.83;1.73;;;17.60;99.90;;;;;;6246146;28;20208;-72
2021/08/11 05:11:01;;;;;;;2.97;2.20;;;17.60;99.90;;;;;;6245849;28;20569;-73
2021/08/11 05:14:04;;;;;;;2.77;2.30;;;17.60;99.90;;;;;;6247815;28;20227;-72
2021/08/11 05:17:06;;;;;;;2.27;2.07;;;17.60;99.90;;;;;;6246957;28;20227;-72
2021/08/11 05:20:09;;;;;;;2.70;2.00;;;17.60;99.90;;;;;;6244897;28;20236;-73
2021/08/11 05:23:11;;;;;;;3.13;2.07;;;17.70;99.90;;;;;;6247022;28;20204;-73
2021/08/11 05:26:13;;;;;;;2.57;2.30;;;17.70;99.90;;;;;;6262152;28;20214;-72
2021/08/11 05:29:19;;;;;;;2.50;2.30;;;17.70;99.90;;;;;;6247233;28;20236;-73
2021/08/11 05:32:23;;;;;;;4.47;2.40;;;17.70;99.90;;;;;;6261864;28;20219;-73
2021/08/11 05:35:32;;;;;;;3.27;2.53;;;17.70;99.90;;;;;;6247095;28;20259;-73
2021/08/11 05:38:38;;;;;;;3.03;2.70;;;17.70;99.90;;;;;;6246518;28;20196;-72
2021/08/11 05:41:40;;;;;;;3.13;2.43;;;17.80;99.90;;;;;;6247372;28;20204;-73
2021/08/11 05:44:42;;;;;;;4.20;2.70;;;17.80;99.90;;;;;;6261830;28;20195;-72
2021/08/11 05:47:45;;;;;;;4.20;3.20;;;17.80;99.90;;;;;;6245278;28;20203;-71
2021/08/11 05:50:47;;;;;;;4.10;3.37;;;17.90;99.90;;;;;;6245205;28;20203;-72
2021/08/11 05:53:50;;;;;;;4.57;3.50;;;18.10;99.90;;;;;;6244825;28;20199;-72
2021/08/11 05:56:52;;;;;;;4.73;3.90;;;18.40;99.90;;;;;;6246665;28;20227;-72
2021/08/11 05:59:54;;;;;;;7.37;4.50;;;18.70;99.90;;;;;;6245003;28;20192;-72
2021/08/11 06:02:57;;;;;;;5.73;3.67;;;19.00;99.90;;;;;;6245716;28;20195;-72
2021/08/11 06:06:13;;;;;;;4.57;3.47;;;19.20;99.90;;;;;;6246251;28;20335;-71
2021/08/11 06:09:16;;;;;;;5.27;3.80;;;19.50;99.90;;;;;;6244364;28;20204;-71
2021/08/11 06:12:18;;;;;;;6.27;4.13;;;19.60;99.90;;;;;;6261098;28;20216;-72
2021/08/11 06:15:21;;;;;;;7.17;3.77;;;19.70;99.90;;;;;;6246339;28;20192;-72
2021/08/11 06:18:23;;;;;;;4.07;3.43;;;19.90;99.90;;;;;;6220050;28;20247;-71
2021/08/11 06:21:26;;;;;;;5.47;3.70;;;20.00;99.90;;;;;;6239186;28;20195;-72
2021/08/11 06:24:29;;;;;;;3.87;3.47;;;20.00;99.90;;;;;;6244173;28;20407;-71
2021/08/11 06:27:32;;;;;;;6.40;3.60;;;20.10;99.90;;;;;;6244432;28;20207;-73
2021/08/11 06:30:34;;;;;;;4.77;3.77;;;20.20;99.90;;;;;;6260007;28;20715;-72
2021/08/11 06:33:38;;;;;;;5.70;3.80;;;20.30;99.90;;;;;;6244103;28;20204;-71
2021/08/11 06:36:40;;;;;;;5.00;3.13;;;20.40;99.90;;;;;;6245050;28;20211;-72
2021/08/11 06:39:43;;;;;;;5.27;3.67;;;20.50;99.90;;;;;;6244949;28;20180;-72
2021/08/11 06:42:46;;;;;;;3.80;3.20;;;20.60;99.90;;;;;;6244049;28;20211;-71
2021/08/11 06:45:52;;;;;;;4.53;3.70;;;20.80;99.90;;;;;;6243913;28;20250;-71
2021/08/11 06:48:56;;;;;;;6.70;3.90;;;20.90;99.90;;;;;;6245896;28;20195;-72
2021/08/11 06:51:58;;;;;;;4.40;3.30;;;21.00;99.90;;;;;;6260756;28;20218;-72
2021/08/11 06:55:13;;;;;;;4.73;3.60;;;21.10;99.90;;;;;;6243941;28;20191;-71
2021/08/11 06:58:15;;;;;;;4.50;3.57;;;21.20;99.90;;;;;;6236247;28;20298;-71
2021/08/11 07:01:17;;;;;;;5.50;3.33;;;21.30;99.90;;;;;;6226853;28;20681;-71
2021/08/11 07:04:20;;;;;;;5.17;4.10;;;21.40;99.90;;;;;;6244142;28;20203;-72
2021/08/11 07:07:22;;;;;;;4.97;3.90;;;21.50;99.90;;;;;;6243630;28;20187;-71
2021/08/11 07:10:25;;;;;;;8.90;4.33;;;21.70;99.90;;;;;;6245132;28;20192;-72
2021/08/11 07:13:28;;;;;;;4.77;3.13;;;21.90;99.90;;;;;;6243780;28;20223;-71
2021/08/11 07:16:30;;;;;;;4.03;3.63;;;22.10;99.90;;;;;;6243746;28;20719;-71
2021/08/11 07:19:33;;;;;;;5.20;4.13;;;22.20;99.90;;;;;;6243773;28;20202;-71
2021/08/11 07:22:36;;;;;;;5.33;3.73;;;22.50;99.90;;;;;;6242984;28;20196;-72
2021/08/11 07:25:38;;;;;;;3.80;3.40;;;22.70;99.90;;;;;;6243329;28;20204;-71
2021/08/11 07:28:41;;;;;;;5.70;3.47;;;22.90;99.90;;;;;;6260071;28;20679;-72
2021/08/11 07:31:43;;;;;;;4.50;3.53;;;23.00;99.90;;;;;;6243143;28;20669;-72
2021/08/11 07:34:45;;;;;;;4.90;3.70;;;23.20;99.90;;;;;;6244692;28;20872;-72
2021/08/11 07:37:53;;;;;;;5.50;4.13;;;23.30;99.90;;;;;;6220272;28;20645;-72
2021/08/11 07:40:56;;;;;;;4.37;3.23;;;23.60;99.90;;;;;;6242451;28;20188;-73
2021/08/11 07:43:59;;;;;;;4.83;4.27;;;23.80;99.90;;;;;;6248519;28;20561;-72
2021/08/11 07:47:02;;;;;;;4.70;3.60;;;24.10;99.90;;;;;;6248871;28;20195;-73
2021/08/11 07:50:06;;;;;;;4.63;3.77;;;24.30;99.90;;;;;;6249114;28;20607;-72
2021/08/11 07:53:08;;;;;;;6.23;3.93;;;24.50;99.30;;;;;;6247549;28;20212;-73
2021/08/11 07:56:11;;;;;;;5.10;3.77;;;24.70;98.80;;;;;;6249099;28;20200;-72
2021/08/11 07:59:13;;;;;;;4.03;3.60;;;24.90;98.20;;;;;;6247110;28;20269;-71
2021/08/11 08:02:15;;;;;;;4.60;3.50;;;24.90;98.20;;;;;;6247757;28;20941;-72
2021/08/11 08:05:18;;;;;;;4.83;3.87;;;24.90;98.00;;;;;;6249037;28;20264;-71
2021/08/11 08:08:21;;;;;;;3.92;3.47;;;25.10;97.40;;;;;;6247512;28;20199;-72
2021/08/11 08:11:27;;;;;;;5.43;3.73;;;25.30;97.40;;;;;;6248081;28;20306;-71
2021/08/11 08:14:29;;;;;;;4.25;3.33;;;25.60;96.70;;;;;;6247014;28;20287;-71
2021/08/11 08:17:32;;;;;;;3.65;3.35;;;25.90;96.50;;;;;;6247097;28;20266;-71
2021/08/11 08:20:51;;;;;;;5.47;3.42;;;26.20;95.70;;;;;;6247579;28;20223;-71
2021/08/11 08:23:53;;;;;;;3.25;2.95;;;26.50;94.20;;;;;;6247246;28;20196;-70
2021/08/11 08:26:56;;;;;;;4.65;3.40;;;26.60;92.40;;;;;;6247052;28;20207;-72
2021/08/11 08:29:58;;;;;;;4.22;3.30;;;26.80;92.40;;;;;;6248058;28;20188;-73
2021/08/11 08:33:00;;;;;;;4.43;3.42;;;27.00;91.70;;;;;;6246961;28;20401;-71
2021/08/11 08:36:03;;;;;;;3.55;3.17;;;27.20;90.70;;;;;;6247754;28;20775;-73
2021/08/11 08:39:05;;;;;;;4.05;3.30;;;27.30;90.30;;;;;;6247045;28;20667;-71
2021/08/11 08:42:10;;;;;;;6.78;3.80;;;27.50;90.30;;;;;;6246894;28;20203;-73
2021/08/11 08:45:14;;;;;;;6.15;3.63;;;27.80;89.80;;;;;;6247708;28;20192;-72
2021/08/11 08:48:16;;;;;;;4.38;3.10;;;28.00;89.30;;;;;;6231746;28;20242;-73
2021/08/11 08:51:22;;;;;;;4.32;3.25;;;28.20;87.90;;;;;;6246061;28;20193;-73
2021/08/11 08:54:27;;;;;;;6.78;3.55;;;28.50;87.70;;;;;;6247836;28;20173;-73
2021/08/11 08:57:30;;;;;;;4.50;3.40;;;28.70;84.70;;;;;;6248636;28;20193;-73
2021/08/11 09:00:35;;;;;;;5.57;3.40;;;28.80;82.50;;;;;;6246087;28;20562;-73
2021/08/11 09:03:39;;;;;;;5.15;3.17;;;28.80;81.20;;;;;;6247624;28;20218;-73
2021/08/11 09:06:42;;;;;;;4.47;3.00;;;28.90;81.10;;;;;;6246093;28;20196;-73
2021/08/11 09:09:44;;;;;;;3.67;2.97;;;29.20;80.00;;;;;;6247561;28;20184;-73
2021/08/11 09:12:51;;;;;;;3.38;3.00;;;29.50;79.90;;;;;;6246951;28;20216;-74
2021/08/11 09:16:04;;;;;;;4.40;3.05;;;29.70;76.50;;;;;;6247177;28;20817;-73
2021/08/11 09:19:09;;;;;;;3.28;2.95;;;29.80;77.00;;;;;;6245885;28;20671;-74
2021/08/11 09:22:16;;;;;;;3.20;2.90;;;29.90;74.60;;;;;;6245501;28;20219;-71
2021/08/11 09:25:19;;;;;;;4.18;3.30;;;29.80;71.90;;;;;;6247138;28;20189;-74
2021/08/11 09:28:22;;;;;;;3.88;3.17;;;29.80;72.50;;;;;;6245601;28;20218;-73
2021/08/11 09:31:40;;;;;;;3.25;2.95;;;29.90;70.70;;;;;;6246729;28;20530;-73
2021/08/11 09:34:43;;;;;;;2.95;2.75;;;29.70;71.80;;;;;;6262146;28;20734;-73
2021/08/11 09:37:48;;;;;;;2.78;2.40;;;29.80;73.00;;;;;;6245216;28;20657;-73
2021/08/11 09:40:50;;;;;;;3.45;3.10;;;29.90;71.80;;;;;;6246652;28;20192;-73
2021/08/11 09:44:10;;;;;;;3.92;2.90;;;30.00;68.80;;;;;;6244991;28;20663;-74
2021/08/11 09:47:16;;;;;;;5.20;3.00;;;30.20;68.40;;;;;;6244995;28;20203;-74
2021/08/11 09:50:30;;;;;;;2.95;2.72;;;30.30;69.00;;;;;;6244868;28;20191;-74
2021/08/11 09:53:38;;;;;;;2.65;2.45;;;30.40;62.10;;;;;;6246511;28;20574;-73
2021/08/11 09:56:42;;;;;;;3.17;2.85;;;30.50;64.30;;;;;;6245140;28;20807;-74
2021/08/11 09:59:57;;;;;;;4.00;2.50;;;30.70;61.50;;;;;;6245826;28;20187;-73
2021/08/11 10:03:03;;;;;;;4.60;2.40;;;30.70;64.10;;;;;;6244862;28;20250;-74
2021/08/11 10:06:24;;;;;;;2.22;2.03;;;30.90;61.30;;;;;;6245082;28;20586;-74
2021/08/11 10:09:26;;;;;;;2.25;2.05;;;31.20;60.40;;;;;;6246241;28;20196;-74
2021/08/11 10:12:31;;;;;;;2.28;2.03;;;31.50;59.40;;;;;;6245550;28;20218;-73
2021/08/11 10:15:33;;;;;;;5.75;2.17;;;31.70;57.90;;;;;;6244209;28;20199;-74
2021/08/11 10:18:39;;;;;;;5.57;2.35;;;31.90;57.90;;;;;;6244687;28;20204;-74
2021/08/11 10:21:58;;;;;;;2.30;2.10;;;31.90;58.50;;;;;;6260555;28;20190;-74
2021/08/11 10:25:01;;;;;;;2.33;2.00;;;32.10;57.70;;;;;;6261205;28;20277;-73
2021/08/11 10:28:04;;;;;;;2.40;2.20;;;32.20;55.90;;;;;;6245157;28;20253;-73
2021/08/11 10:31:06;;;;;;;2.47;2.15;;;32.20;55.90;;;;;;6245266;28;20184;-75
2021/08/11 10:34:12;;;;;;;2.45;2.25;;;32.40;56.40;;;;;;6245562;28;20214;-73
2021/08/11 10:37:18;;;;;;;4.18;2.65;;;32.60;56.20;;;;;;6245723;28;20180;-74
2021/08/11 10:40:20;;;;;;;2.72;2.40;;;32.80;54.60;;;;;;6260671;28;20196;-74
2021/08/11 10:43:23;;;;;;;4.93;2.58;;;32.60;55.30;;;;;;6243377;28;20279;-74
2021/08/11 10:46:44;;;;;;;3.88;2.20;;;32.70;55.90;;;;;;6245264;28;20195;-74
2021/08/11 10:50:04;;;;;;;2.45;2.25;;;32.60;55.30;;;;;;6243676;28;20204;-74
2021/08/11 10:53:08;;;;;;;2.70;2.42;;;32.70;55.20;;;;;;6245416;28;20236;-74
2021/08/11 10:56:10;;;;;;;2.47;2.28;;;32.80;54.60;;;;;;6260666;28;20192;-75
2021/08/11 10:59:21;;;;;;;2.70;2.25;;;32.90;54.70;;;;;;6245158;28;20198;-74
2021/08/11 11:02:39;;;;;;;2.30;2.10;;;32.80;54.00;;;;;;6244810;28;20215;-73
2021/08/11 11:05:53;;;;;;;3.40;2.22;;;33.00;53.60;;;;;;6244814;28;20649;-73
2021/08/11 11:09:17;;;;;;;3.60;2.10;;;33.10;54.90;;;;;;6260295;28;20646;-74
2021/08/11 11:12:19;;;;;;;2.08;1.98;;;33.20;52.70;;;;;;6259643;28;20295;-74
2021/08/11 11:15:40;;;;;;;2.33;2.13;;;33.00;52.60;;;;;;6260230;28;20243;-74
2021/08/11 11:19:07;;;;;;;3.95;2.70;;;33.40;53.00;;;;;;6225250;28;20227;-74
2021/08/11 11:22:49;;;;;;;3.08;2.40;;;33.80;51.60;;;;;;6224206;28;20240;-74
2021/08/11 11:26:06;;;;;;;2.38;2.17;;;34.30;52.00;;;;;;6223812;28;20204;-74
2021/08/11 11:29:10;;;;;;;5.30;2.30;;;34.30;50.60;;;;;;6230330;28;20651;-75
2021/08/11 11:32:24;;;;;;;2.40;2.20;;;34.10;50.50;;;;;;6230344;28;20208;-74
2021/08/11 11:35:27;;;;;;;2.47;2.28;;;34.30;50.50;;;;;;6246424;28;20663;-74
2021/08/11 11:38:30;;;;;;;3.58;2.50;;;34.40;49.20;;;;;;6246801;28;20203;-75
2021/08/11 11:41:34;;;;;;;2.90;2.20;;;34.50;49.70;;;;;;6246056;28;20198;-75
2021/08/11 11:44:50;;;;;;;4.05;2.47;;;34.70;49.20;;;;;;6246805;28;20290;-75
2021/08/11 11:47:58;;;;;;;2.67;2.47;;;34.70;49.30;;;;;;6246607;28;20207;-74
2021/08/11 11:51:04;;;;;;;3.10;2.47;;;34.40;49.30;;;;;;6229375;28;20307;-74
2021/08/11 11:54:06;;;;;;;2.75;2.50;;;34.40;49.20;;;;;;6230137;28;20272;-74
2021/08/11 11:57:09;;;;;;;2.60;2.20;;;34.60;49.30;;;;;;6248213;28;20206;-74
2021/08/11 12:00:17;;;;;;;2.50;2.30;;;34.70;48.40;;;;;;6249349;28;20188;-74
2021/08/11 12:03:20;;;;;;;3.53;2.60;;;34.70;48.20;;;;;;6248626;28;20632;-74
2021/08/11 12:06:38;;;;;;;2.53;2.20;;;34.60;48.20;;;;;;6247653;28;20226;-74
2021/08/11 12:09:45;;;;;;;2.63;2.42;;;34.50;48.90;;;;;;6247425;28;20568;-74
2021/08/11 12:13:01;;;;;;;3.25;2.47;;;34.60;49.00;;;;;;6247750;28;20687;-74
2021/08/11 12:16:04;;;;;;;2.42;2.15;;;34.50;48.00;;;;;;6250828;28;20647;-74
2021/08/11 12:19:14;;;;;;;3.75;2.40;;;34.00;48.30;;;;;;6251023;28;20231;-74
2021/08/11 12:22:34;;;;;;;2.95;2.65;;;33.80;49.10;;;;;;6248328;28;20219;-74
2021/08/11 12:25:36;;;;;;;2.85;2.30;;;33.90;48.90;;;;;;6249145;28;20189;-76
2021/08/11 12:28:46;;;;;;;3.33;2.38;;;34.20;48.70;;;;;;6247982;28;20238;-75
2021/08/11 12:31:49;;;;;;;3.92;2.80;;;34.40;47.90;;;;;;6249450;28;20611;-72
2021/08/11 12:34:52;;;;;;;2.70;2.50;;;34.80;47.60;;;;;;6248248;28;20251;-72
2021/08/11 12:37:54;;;;;;;4.57;2.40;;;35.10;48.60;;;;;;6249440;28;20240;-73
2021/08/11 12:40:58;;;;;;;3.55;2.60;;;34.80;47.00;;;;;;6247409;28;20661;-74
2021/08/11 12:44:20;;;;;;;2.50;2.30;;;35.10;47.60;;;;;;6247076;28;20733;-74
2021/08/11 12:47:25;;;;;;;2.80;2.60;;;35.60;47.30;;;;;;6248318;28;20250;-74
2021/08/11 12:50:27;;;;;;;2.55;2.35;;;36.00;46.30;;;;;;6248146;28;20200;-75
2021/08/11 12:53:39;;;;;;;3.72;2.38;;;35.90;46.20;;;;;;6263333;28;20286;-74
2021/08/11 12:56:58;;;;;;;3.63;2.63;;;36.10;46.50;;;;;;6246583;28;20199;-74
2021/08/11 13:00:01;;;;;;;2.75;2.50;;;36.40;46.30;;;;;;6263647;28;20197;-74
2021/08/11 13:03:03;;;;;;;3.72;2.50;;;36.60;45.80;;;;;;6245735;28;20716;-75
2021/08/11 13:06:06;;;;;;;4.13;2.78;;;36.60;45.00;;;;;;6262801;28;20191;-75
2021/08/11 13:09:30;;;;;;;3.30;2.63;;;36.50;45.50;;;;;;6246551;28;20222;-75
2021/08/11 13:12:34;;;;;;;2.88;2.67;;;36.60;45.10;;;;;;6246875;28;20192;-75
2021/08/11 13:15:36;;;;;;;3.28;2.50;;;36.70;45.10;;;;;;6247227;28;20269;-75
2021/08/11 13:18:39;;;;;;;3.10;2.47;;;36.70;45.70;;;;;;6246968;28;20269;-75
2021/08/11 13:21:42;;;;;;;3.17;2.38;;;36.60;46.00;;;;;;6245923;28;20220;-75
2021/08/11 13:24:45;;;;;;;3.45;2.70;;;36.40;45.30;;;;;;6245436;28;20199;-75
2021/08/11 13:27:49;;;;;;;2.85;2.55;;;36.40;45.30;;;;;;6247109;28;20321;-75
2021/08/11 13:30:53;;;;;;;2.90;2.47;;;36.30;45.90;;;;;;6261388;28;20196;-70
2021/08/11 13:33:56;;;;;;;3.55;2.63;;;36.40;44.80;;;;;;6244507;28;20565;-70
2021/08/11 13:36:58;;;;;;;3.67;2.40;;;36.60;44.10;;;;;;6247017;28;20298;-73
2021/08/11 13:40:03;;;;;;;2.75;2.55;;;36.80;45.20;;;;;;6245554;28;20648;-71
2021/08/11 13:43:06;;;;;;;4.22;2.90;;;37.00;44.30;;;;;;6262124;28;20189;-72
2021/08/11 13:46:09;;;;;;;3.03;2.72;;;37.60;44.00;;;;;;6245209;28;20200;-73
2021/08/11 13:49:11;;;;;;;2.67;2.47;;;37.50;44.70;;;;;;6246223;28;20195;-71
2021/08/11 13:52:14;;;;;;;3.78;2.80;;;37.20;44.70;;;;;;6246457;28;20619;-73
2021/08/11 13:55:16;;;;;;;3.10;2.80;;;36.90;45.20;;;;;;6246064;28;20261;-71
2021/08/11 13:58:18;;;;;;;4.28;3.00;;;36.60;45.50;;;;;;6246584;28;20667;-72
2021/08/11 14:01:20;;;;;;;3.47;3.17;;;36.20;46.00;;;;;;6245950;28;20191;-72
2021/08/11 14:04:23;;;;;;;2.72;2.53;;;35.30;47.40;;;;;;6246196;28;20222;-71
2021/08/11 14:07:26;;;;;;;4.13;3.00;;;34.90;48.30;;;;;;6246285;28;20196;-71
2021/08/11 14:10:28;;;;;;;5.22;2.97;;;35.70;48.10;;;;;;6244679;28;20199;-71
2021/08/11 14:13:31;;;;;;;3.42;3.00;;;36.70;48.10;;;;;;6246058;28;20238;-70
2021/08/11 14:16:33;;;;;;;3.13;2.75;;;37.60;45.20;;;;;;6245578;28;20306;-71
2021/08/11 14:19:37;;;;;;;3.30;2.90;;;38.10;43.70;;;;;;6244798;28;20196;-74
2021/08/11 14:22:39;;;;;;;3.40;3.10;;;38.90;43.50;;;;;;6261056;28;20270;-75
2021/08/11 14:25:41;;;;;;;3.50;2.78;;;39.30;42.80;;;;;;6245406;28;20241;-75
2021/08/11 14:28:44;;;;;;;3.35;3.05;;;39.30;42.60;;;;;;6244666;28;20306;-75
2021/08/11 14:31:49;;;;;;;3.35;2.90;;;38.90;42.20;;;;;;6260352;28;20196;-75
2021/08/11 14:34:51;;;;;;;3.30;3.00;;;39.10;42.10;;;;;;6245605;28;20220;-74
2021/08/11 14:37:54;;;;;;;3.63;2.67;;;39.20;41.60;;;;;;6245279;28;20188;-74
2021/08/11 14:40:56;;;;;;;2.95;2.72;;;38.70;42.00;;;;;;6245091;28;20670;-74
2021/08/11 14:43:59;;;;;;;4.00;2.38;;;38.30;41.80;;;;;;6245374;28;20191;-74
2021/08/11 14:47:01;;;;;;;4.50;2.67;;;36.10;43.90;;;;;;6245005;28;20195;-74
2021/08/11 14:50:04;;;;;;;3.30;3.00;;;35.00;46.40;;;;;;6245405;28;20715;-74
2021/08/11 14:53:08;;;;;;;5.43;3.30;;;35.60;46.20;;;;;;6260311;28;20941;-74
2021/08/11 14:56:12;;;;;;;2.65;2.45;;;36.60;44.70;;;;;;6243636;28;20241;-74
2021/08/11 14:59:14;;;;;;;3.63;2.75;;;37.60;43.90;;;;;;6245252;28;20654;-74
2021/08/11 15:02:17;;;;;;;4.35;2.63;;;38.10;42.90;;;;;;6245045;28;20234;-74
2021/08/11 15:05:19;;;;;;;3.40;2.95;;;37.40;43.80;;;;;;6244959;28;20199;-74
2021/08/11 15:08:21;;;;;;;2.45;2.22;;;37.30;46.80;;;;;;6244812;28;20199;-74
2021/08/11 15:11:24;;;;;;;2.65;2.40;;;37.70;43.40;;;;;;6244964;28;20556;-74
2021/08/11 15:14:26;;;;;;;4.18;2.88;;;38.40;44.60;;;;;;6245097;28;20208;-75
2021/08/11 15:17:29;;;;;;;3.40;2.63;;;38.30;42.40;;;;;;6244509;28;20231;-74
2021/08/11 15:20:31;;;;;;;3.00;2.70;;;38.20;41.90;;;;;;6260067;28;20188;-75
2021/08/11 15:23:33;;;;;;;3.05;2.75;;;38.40;42.90;;;;;;6244443;28;20192;-74
2021/08/11 15:26:36;;;;;;;6.65;2.97;;;38.60;42.00;;;;;;6244992;28;20195;-74
2021/08/11 15:29:39;;;;;;;2.60;2.40;;;38.80;42.40;;;;;;6243556;28;20199;-74
2021/08/11 15:32:41;;;;;;;2.53;2.33;;;39.00;42.90;;;;;;6242863;28;20204;-74
2021/08/11 15:35:43;;;;;;;2.55;2.35;;;38.70;42.10;;;;;;6244229;28;20215;-75
2021/08/11 15:38:46;;;;;;;3.35;2.60;;;38.60;42.70;;;;;;6244216;28;20648;-74
2021/08/11 15:41:48;;;;;;;5.55;2.60;;;38.40;43.10;;;;;;6243269;28;20666;-74
2021/08/11 15:44:50;;;;;;;3.30;2.88;;;38.20;44.70;;;;;;6259882;28;20224;-75
2021/08/11 15:47:52;;;;;;;5.55;2.75;;;38.40;42.80;;;;;;6259727;28;20207;-74
2021/08/11 15:50:55;;;;;;;5.18;2.83;;;37.90;44.20;;;;;;6244227;28;20214;-75
2021/08/11 15:54:00;;;;;;;3.63;2.80;;;37.80;44.60;;;;;;6244034;28;20293;-75
2021/08/11 15:57:03;;;;;;;3.05;2.75;;;38.00;44.10;;;;;;6244188;28;20200;-75
2021/08/11 16:00:07;;;;;;;4.03;3.00;;;37.80;44.40;;;;;;6243085;28;20196;-75
2021/08/11 16:03:10;;;;;;;4.28;2.55;;;37.40;43.60;;;;;;6245248;28;20207;-75
2021/08/11 16:06:12;;;;;;;3.20;2.67;;;36.10;44.10;;;;;;6249189;28;20406;-74